sensor_id;sensor_type;location;lat;lon;timestamp;P1;durP1;ratioP1;P2;durP2;ratioP2
5674;SDS011;2860;54.284;10.158;2023-04-21T00:00:13;14.80;;;10.07;;
5674;SDS011;2860;54.284;10.158;2023-04-21T00:02:39;13.02;;;9.45;;
5674;SDS011;2860;54.284;10.158;2023-04-21T00:05:06;18.20;;;10.38;;
5674;SDS011;2860;54.284;10.158;2023-04-21T00:07:35;13.32;;;9.20;;
5674;SDS011;2860;54.284;10.158;2023-04-21T00:10:02;18.48;;;9.55;;
5674;SDS011;2860;54.284;10.158;2023-04-21T00:12:29;16.33;;;10.25;;
5674;SDS011;2860;54.284;10.158;2023-04-21T00:14:54;11.05;;;9.15;;
5674;SDS011;2860;54.284;10.158;2023-04-21T00:17:20;16.45;;;9.82;;
5674;SDS011;2860;54.284;10.158;2023-04-21T00:19:45;14.95;;;10.10;;
5674;SDS011;2860;54.284;10.158;2023-04-21T00:22:11;13.15;;;8.70;;
5674;SDS011;2860;54.284;10.158;2023-04-21T00:24:38;16.75;;;9.80;;
5674;SDS011;2860;54.284;10.158;2023-04-21T00:27:04;10.60;;;8.98;;
5674;SDS011;2860;54.284;10.158;2023-04-21T00:29:30;14.85;;;8.55;;
5674;SDS011;2860;54.284;10.158;2023-04-21T00:31:56;11.90;;;9.43;;
5674;SDS011;2860;54.284;10.158;2023-04-21T00:34:21;40.25;;;23.85;;
5674;SDS011;2860;54.284;10.158;2023-04-21T00:36:47;16.38;;;10.43;;
5674;SDS011;2860;54.284;10.158;2023-04-21T00:39:12;12.02;;;9.55;;
5674;SDS011;2860;54.284;10.158;2023-04-21T00:41:38;16.55;;;8.50;;
5674;SDS011;2860;54.284;10.158;2023-04-21T00:44:04;16.27;;;9.13;;
5674;SDS011;2860;54.284;10.158;2023-04-21T00:46:34;13.40;;;8.43;;
5674;SDS011;2860;54.284;10.158;2023-04-21T00:49:02;13.88;;;8.15;;
5674;SDS011;2860;54.284;10.158;2023-04-21T00:51:28;9.45;;;8.60;;
5674;SDS011;2860;54.284;10.158;2023-04-21T00:53:57;9.73;;;8.63;;
5674;SDS011;2860;54.284;10.158;2023-04-21T00:56:22;11.00;;;7.90;;
5674;SDS011;2860;54.284;10.158;2023-04-21T00:58:50;14.20;;;8.05;;
5674;SDS011;2860;54.284;10.158;2023-04-21T01:01:17;10.07;;;8.48;;
5674;SDS011;2860;54.284;10.158;2023-04-21T01:03:43;12.23;;;7.25;;
5674;SDS011;2860;54.284;10.158;2023-04-21T01:06:09;10.52;;;7.80;;
5674;SDS011;2860;54.284;10.158;2023-04-21T01:08:35;14.77;;;7.70;;
5674;SDS011;2860;54.284;10.158;2023-04-21T01:11:07;31.42;;;8.48;;
5674;SDS011;2860;54.284;10.158;2023-04-21T01:13:34;17.52;;;10.63;;
5674;SDS011;2860;54.284;10.158;2023-04-21T01:16:00;8.43;;;7.22;;
5674;SDS011;2860;54.284;10.158;2023-04-21T01:18:26;13.35;;;8.02;;
5674;SDS011;2860;54.284;10.158;2023-04-21T01:20:51;8.82;;;7.88;;
5674;SDS011;2860;54.284;10.158;2023-04-21T01:23:17;8.40;;;7.63;;
5674;SDS011;2860;54.284;10.158;2023-04-21T01:25:44;8.73;;;6.55;;
5674;SDS011;2860;54.284;10.158;2023-04-21T01:28:11;14.50;;;7.65;;
5674;SDS011;2860;54.284;10.158;2023-04-21T01:30:36;9.82;;;7.85;;
5674;SDS011;2860;54.284;10.158;2023-04-21T01:33:02;8.15;;;6.93;;
5674;SDS011;2860;54.284;10.158;2023-04-21T01:35:28;10.88;;;7.22;;
5674;SDS011;2860;54.284;10.158;2023-04-21T01:37:53;9.25;;;8.35;;
5674;SDS011;2860;54.284;10.158;2023-04-21T01:40:19;13.00;;;7.43;;
5674;SDS011;2860;54.284;10.158;2023-04-21T01:42:45;12.90;;;7.20;;
5674;SDS011;2860;54.284;10.158;2023-04-21T01:45:11;11.27;;;7.55;;
5674;SDS011;2860;54.284;10.158;2023-04-21T01:47:36;8.02;;;7.25;;
5674;SDS011;2860;54.284;10.158;2023-04-21T01:50:12;9.98;;;7.20;;
5674;SDS011;2860;54.284;10.158;2023-04-21T01:52:37;8.25;;;7.40;;
5674;SDS011;2860;54.284;10.158;2023-04-21T01:55:03;10.98;;;7.80;;
5674;SDS011;2860;54.284;10.158;2023-04-21T01:57:29;8.02;;;7.13;;
5674;SDS011;2860;54.284;10.158;2023-04-21T01:59:54;7.70;;;6.93;;
5674;SDS011;2860;54.284;10.158;2023-04-21T02:02:21;7.68;;;6.93;;
5674;SDS011;2860;54.284;10.158;2023-04-21T02:04:47;6.97;;;6.40;;
5674;SDS011;2860;54.284;10.158;2023-04-21T02:07:12;12.18;;;7.15;;
5674;SDS011;2860;54.284;10.158;2023-04-21T02:09:38;7.25;;;6.55;;
5674;SDS011;2860;54.284;10.158;2023-04-21T02:12:03;7.90;;;6.90;;
5674;SDS011;2860;54.284;10.158;2023-04-21T02:14:29;8.68;;;7.63;;
5674;SDS011;2860;54.284;10.158;2023-04-21T02:16:55;6.75;;;6.28;;
5674;SDS011;2860;54.284;10.158;2023-04-21T02:19:20;8.93;;;7.53;;
5674;SDS011;2860;54.284;10.158;2023-04-21T02:21:46;9.10;;;7.40;;
5674;SDS011;2860;54.284;10.158;2023-04-21T02:24:11;7.53;;;6.88;;
5674;SDS011;2860;54.284;10.158;2023-04-21T02:26:37;9.63;;;6.43;;
5674;SDS011;2860;54.284;10.158;2023-04-21T02:29:02;9.80;;;7.05;;
5674;SDS011;2860;54.284;10.158;2023-04-21T02:31:28;8.50;;;6.88;;
5674;SDS011;2860;54.284;10.158;2023-04-21T02:33:53;11.70;;;6.57;;
5674;SDS011;2860;54.284;10.158;2023-04-21T02:36:19;10.95;;;7.57;;
5674;SDS011;2860;54.284;10.158;2023-04-21T02:38:45;12.43;;;6.55;;
5674;SDS011;2860;54.284;10.158;2023-04-21T02:41:11;10.23;;;6.75;;
5674;SDS011;2860;54.284;10.158;2023-04-21T02:43:36;8.88;;;7.10;;
5674;SDS011;2860;54.284;10.158;2023-04-21T02:46:05;9.65;;;6.10;;
5674;SDS011;2860;54.284;10.158;2023-04-21T02:48:31;8.10;;;6.50;;
5674;SDS011;2860;54.284;10.158;2023-04-21T02:50:57;6.25;;;5.70;;
5674;SDS011;2860;54.284;10.158;2023-04-21T02:53:22;8.93;;;6.45;;
5674;SDS011;2860;54.284;10.158;2023-04-21T02:55:48;8.52;;;6.25;;
5674;SDS011;2860;54.284;10.158;2023-04-21T02:58:13;9.63;;;6.18;;
5674;SDS011;2860;54.284;10.158;2023-04-21T03:00:40;12.85;;;6.80;;
5674;SDS011;2860;54.284;10.158;2023-04-21T03:03:06;7.07;;;5.93;;
5674;SDS011;2860;54.284;10.158;2023-04-21T03:05:31;7.22;;;6.05;;
5674;SDS011;2860;54.284;10.158;2023-04-21T03:07:57;6.18;;;5.68;;
5674;SDS011;2860;54.284;10.158;2023-04-21T03:10:23;7.72;;;6.55;;
5674;SDS011;2860;54.284;10.158;2023-04-21T03:12:48;6.70;;;6.15;;
5674;SDS011;2860;54.284;10.158;2023-04-21T03:15:14;7.53;;;5.85;;
5674;SDS011;2860;54.284;10.158;2023-04-21T03:17:40;6.20;;;5.68;;
5674;SDS011;2860;54.284;10.158;2023-04-21T03:20:06;9.25;;;6.10;;
5674;SDS011;2860;54.284;10.158;2023-04-21T03:22:35;7.85;;;6.22;;
5674;SDS011;2860;54.284;10.158;2023-04-21T03:25:04;7.07;;;6.20;;
5674;SDS011;2860;54.284;10.158;2023-04-21T03:27:31;9.27;;;5.30;;
5674;SDS011;2860;54.284;10.158;2023-04-21T03:29:57;8.02;;;6.35;;
5674;SDS011;2860;54.284;10.158;2023-04-21T03:32:23;6.80;;;6.13;;
5674;SDS011;2860;54.284;10.158;2023-04-21T03:34:48;7.78;;;6.18;;
5674;SDS011;2860;54.284;10.158;2023-04-21T03:37:14;16.30;;;6.43;;
5674;SDS011;2860;54.284;10.158;2023-04-21T03:39:40;6.53;;;5.90;;
5674;SDS011;2860;54.284;10.158;2023-04-21T03:42:05;8.65;;;6.32;;
5674;SDS011;2860;54.284;10.158;2023-04-21T03:44:31;9.20;;;6.55;;
5674;SDS011;2860;54.284;10.158;2023-04-21T03:46:56;13.75;;;6.00;;
5674;SDS011;2860;54.284;10.158;2023-04-21T03:49:22;13.88;;;5.95;;
5674;SDS011;2860;54.284;10.158;2023-04-21T03:51:48;8.75;;;5.47;;
5674;SDS011;2860;54.284;10.158;2023-04-21T03:54:13;7.32;;;5.90;;
5674;SDS011;2860;54.284;10.158;2023-04-21T03:56:39;12.43;;;7.40;;
5674;SDS011;2860;54.284;10.158;2023-04-21T03:59:04;10.48;;;5.88;;
5674;SDS011;2860;54.284;10.158;2023-04-21T04:01:30;11.27;;;6.32;;
5674;SDS011;2860;54.284;10.158;2023-04-21T04:03:57;7.57;;;5.90;;
5674;SDS011;2860;54.284;10.158;2023-04-21T04:06:23;7.13;;;5.90;;
5674;SDS011;2860;54.284;10.158;2023-04-21T04:08:48;8.68;;;6.03;;
5674;SDS011;2860;54.284;10.158;2023-04-21T04:11:13;10.23;;;6.65;;
5674;SDS011;2860;54.284;10.158;2023-04-21T04:13:39;7.90;;;6.93;;
5674;SDS011;2860;54.284;10.158;2023-04-21T04:16:05;6.20;;;5.53;;
5674;SDS011;2860;54.284;10.158;2023-04-21T04:18:30;7.22;;;6.63;;
5674;SDS011;2860;54.284;10.158;2023-04-21T04:20:56;8.20;;;6.40;;
5674;SDS011;2860;54.284;10.158;2023-04-21T04:23:21;9.85;;;6.00;;
5674;SDS011;2860;54.284;10.158;2023-04-21T04:25:47;5.85;;;5.35;;
5674;SDS011;2860;54.284;10.158;2023-04-21T04:28:13;6.93;;;6.22;;
5674;SDS011;2860;54.284;10.158;2023-04-21T04:30:39;9.00;;;5.47;;
5674;SDS011;2860;54.284;10.158;2023-04-21T04:33:05;11.80;;;6.45;;
5674;SDS011;2860;54.284;10.158;2023-04-21T04:35:31;13.75;;;6.13;;
5674;SDS011;2860;54.284;10.158;2023-04-21T04:37:56;7.07;;;5.30;;
5674;SDS011;2860;54.284;10.158;2023-04-21T04:40:23;6.22;;;5.78;;
5674;SDS011;2860;54.284;10.158;2023-04-21T04:42:48;7.63;;;5.57;;
5674;SDS011;2860;54.284;10.158;2023-04-21T04:45:15;8.68;;;4.65;;
5674;SDS011;2860;54.284;10.158;2023-04-21T04:47:40;7.30;;;4.88;;
5674;SDS011;2860;54.284;10.158;2023-04-21T04:50:06;7.70;;;5.55;;
5674;SDS011;2860;54.284;10.158;2023-04-21T04:52:32;7.07;;;5.28;;
5674;SDS011;2860;54.284;10.158;2023-04-21T04:54:58;6.32;;;5.72;;
5674;SDS011;2860;54.284;10.158;2023-04-21T04:57:23;6.95;;;4.75;;
5674;SDS011;2860;54.284;10.158;2023-04-21T04:59:55;10.18;;;5.28;;
5674;SDS011;2860;54.284;10.158;2023-04-21T05:02:20;11.73;;;4.82;;
5674;SDS011;2860;54.284;10.158;2023-04-21T05:04:49;5.38;;;4.40;;
5674;SDS011;2860;54.284;10.158;2023-04-21T05:07:15;6.43;;;5.53;;
5674;SDS011;2860;54.284;10.158;2023-04-21T05:09:40;5.18;;;4.57;;
5674;SDS011;2860;54.284;10.158;2023-04-21T05:12:06;7.65;;;4.65;;
5674;SDS011;2860;54.284;10.158;2023-04-21T05:14:32;6.93;;;4.78;;
5674;SDS011;2860;54.284;10.158;2023-04-21T05:16:57;7.93;;;5.07;;
5674;SDS011;2860;54.284;10.158;2023-04-21T05:19:23;12.15;;;4.43;;
5674;SDS011;2860;54.284;10.158;2023-04-21T05:21:48;7.07;;;5.22;;
5674;SDS011;2860;54.284;10.158;2023-04-21T05:24:14;6.00;;;4.78;;
5674;SDS011;2860;54.284;10.158;2023-04-21T05:26:39;8.07;;;4.40;;
5674;SDS011;2860;54.284;10.158;2023-04-21T05:29:05;8.23;;;5.28;;
5674;SDS011;2860;54.284;10.158;2023-04-21T05:31:30;5.40;;;4.25;;
5674;SDS011;2860;54.284;10.158;2023-04-21T05:33:57;4.50;;;4.10;;
5674;SDS011;2860;54.284;10.158;2023-04-21T05:36:22;10.95;;;4.75;;
5674;SDS011;2860;54.284;10.158;2023-04-21T05:38:48;15.13;;;4.85;;
5674;SDS011;2860;54.284;10.158;2023-04-21T05:41:14;5.47;;;4.35;;
5674;SDS011;2860;54.284;10.158;2023-04-21T05:43:40;5.25;;;3.95;;
5674;SDS011;2860;54.284;10.158;2023-04-21T05:46:07;7.13;;;4.97;;
5674;SDS011;2860;54.284;10.158;2023-04-21T05:48:33;4.57;;;3.40;;
5674;SDS011;2860;54.284;10.158;2023-04-21T05:51:12;7.70;;;4.18;;
5674;SDS011;2860;54.284;10.158;2023-04-21T05:53:39;6.30;;;4.25;;
5674;SDS011;2860;54.284;10.158;2023-04-21T05:56:07;6.15;;;3.70;;
5674;SDS011;2860;54.284;10.158;2023-04-21T05:58:33;4.40;;;4.13;;
5674;SDS011;2860;54.284;10.158;2023-04-21T06:00:59;4.35;;;3.95;;
5674;SDS011;2860;54.284;10.158;2023-04-21T06:03:25;8.00;;;3.85;;
5674;SDS011;2860;54.284;10.158;2023-04-21T06:05:53;3.92;;;3.38;;
5674;SDS011;2860;54.284;10.158;2023-04-21T06:08:19;4.40;;;3.88;;
5674;SDS011;2860;54.284;10.158;2023-04-21T06:10:45;5.13;;;3.20;;
5674;SDS011;2860;54.284;10.158;2023-04-21T06:13:11;4.18;;;3.90;;
5674;SDS011;2860;54.284;10.158;2023-04-21T06:15:36;6.72;;;3.83;;
5674;SDS011;2860;54.284;10.158;2023-04-21T06:18:02;6.22;;;3.85;;
5674;SDS011;2860;54.284;10.158;2023-04-21T06:20:27;4.82;;;3.92;;
5674;SDS011;2860;54.284;10.158;2023-04-21T06:22:53;4.20;;;3.90;;
5674;SDS011;2860;54.284;10.158;2023-04-21T06:25:18;4.75;;;4.38;;
5674;SDS011;2860;54.284;10.158;2023-04-21T06:27:44;4.88;;;4.35;;
5674;SDS011;2860;54.284;10.158;2023-04-21T06:30:10;5.57;;;5.13;;
5674;SDS011;2860;54.284;10.158;2023-04-21T06:32:36;5.03;;;4.60;;
5674;SDS011;2860;54.284;10.158;2023-04-21T06:35:01;5.00;;;4.53;;
5674;SDS011;2860;54.284;10.158;2023-04-21T06:37:27;4.07;;;3.85;;
5674;SDS011;2860;54.284;10.158;2023-04-21T06:39:53;4.47;;;4.28;;
5674;SDS011;2860;54.284;10.158;2023-04-21T06:42:18;6.10;;;4.47;;
5674;SDS011;2860;54.284;10.158;2023-04-21T06:44:44;8.13;;;4.60;;
5674;SDS011;2860;54.284;10.158;2023-04-21T06:47:10;8.60;;;4.97;;
5674;SDS011;2860;54.284;10.158;2023-04-21T06:49:35;6.85;;;4.60;;
5674;SDS011;2860;54.284;10.158;2023-04-21T06:52:01;7.32;;;4.50;;
5674;SDS011;2860;54.284;10.158;2023-04-21T06:54:30;9.57;;;4.55;;
5674;SDS011;2860;54.284;10.158;2023-04-21T06:56:55;4.93;;;3.95;;
5674;SDS011;2860;54.284;10.158;2023-04-21T06:59:21;5.68;;;4.72;;
5674;SDS011;2860;54.284;10.158;2023-04-21T07:01:47;5.95;;;4.43;;
5674;SDS011;2860;54.284;10.158;2023-04-21T07:04:16;7.43;;;4.85;;
5674;SDS011;2860;54.284;10.158;2023-04-21T07:06:44;10.13;;;4.80;;
5674;SDS011;2860;54.284;10.158;2023-04-21T07:09:10;5.60;;;5.05;;
5674;SDS011;2860;54.284;10.158;2023-04-21T07:11:36;7.68;;;4.88;;
5674;SDS011;2860;54.284;10.158;2023-04-21T07:14:01;5.63;;;4.45;;
5674;SDS011;2860;54.284;10.158;2023-04-21T07:16:27;5.13;;;4.65;;
5674;SDS011;2860;54.284;10.158;2023-04-21T07:18:54;9.70;;;5.22;;
5674;SDS011;2860;54.284;10.158;2023-04-21T07:21:19;5.40;;;4.90;;
5674;SDS011;2860;54.284;10.158;2023-04-21T07:23:45;7.32;;;5.07;;
5674;SDS011;2860;54.284;10.158;2023-04-21T07:26:11;7.32;;;5.15;;
5674;SDS011;2860;54.284;10.158;2023-04-21T07:28:37;6.45;;;4.57;;
5674;SDS011;2860;54.284;10.158;2023-04-21T07:31:04;6.30;;;5.63;;
5674;SDS011;2860;54.284;10.158;2023-04-21T07:33:30;7.03;;;5.10;;
5674;SDS011;2860;54.284;10.158;2023-04-21T07:35:56;6.35;;;4.88;;
5674;SDS011;2860;54.284;10.158;2023-04-21T07:38:21;6.20;;;5.35;;
5674;SDS011;2860;54.284;10.158;2023-04-21T07:40:47;5.70;;;5.10;;
5674;SDS011;2860;54.284;10.158;2023-04-21T07:43:12;7.38;;;5.20;;
5674;SDS011;2860;54.284;10.158;2023-04-21T07:45:38;5.63;;;5.05;;
5674;SDS011;2860;54.284;10.158;2023-04-21T07:48:03;11.15;;;5.45;;
5674;SDS011;2860;54.284;10.158;2023-04-21T07:50:31;6.88;;;6.22;;
5674;SDS011;2860;54.284;10.158;2023-04-21T07:52:57;7.25;;;5.35;;
5674;SDS011;2860;54.284;10.158;2023-04-21T07:55:23;5.78;;;5.28;;
5674;SDS011;2860;54.284;10.158;2023-04-21T07:57:48;10.02;;;5.55;;
5674;SDS011;2860;54.284;10.158;2023-04-21T08:00:14;6.38;;;5.18;;
5674;SDS011;2860;54.284;10.158;2023-04-21T08:02:40;7.68;;;5.85;;
5674;SDS011;2860;54.284;10.158;2023-04-21T08:05:06;5.40;;;4.70;;
5674;SDS011;2860;54.284;10.158;2023-04-21T08:07:31;5.95;;;5.47;;
5674;SDS011;2860;54.284;10.158;2023-04-21T08:09:57;6.15;;;5.55;;
5674;SDS011;2860;54.284;10.158;2023-04-21T08:12:24;12.75;;;5.88;;
5674;SDS011;2860;54.284;10.158;2023-04-21T08:14:50;7.68;;;6.10;;
5674;SDS011;2860;54.284;10.158;2023-04-21T08:17:15;10.27;;;6.13;;
5674;SDS011;2860;54.284;10.158;2023-04-21T08:19:41;9.75;;;6.18;;
5674;SDS011;2860;54.284;10.158;2023-04-21T08:22:06;7.10;;;6.13;;
5674;SDS011;2860;54.284;10.158;2023-04-21T08:24:33;8.80;;;6.50;;
5674;SDS011;2860;54.284;10.158;2023-04-21T08:26:58;7.53;;;6.85;;
5674;SDS011;2860;54.284;10.158;2023-04-21T08:29:26;10.25;;;6.47;;
5674;SDS011;2860;54.284;10.158;2023-04-21T08:31:51;11.35;;;5.78;;
5674;SDS011;2860;54.284;10.158;2023-04-21T08:34:17;6.25;;;5.78;;
5674;SDS011;2860;54.284;10.158;2023-04-21T08:36:43;7.50;;;6.05;;
5674;SDS011;2860;54.284;10.158;2023-04-21T08:39:11;8.13;;;5.43;;
5674;SDS011;2860;54.284;10.158;2023-04-21T08:41:37;9.80;;;6.60;;
5674;SDS011;2860;54.284;10.158;2023-04-21T08:44:06;27.20;;;6.43;;
5674;SDS011;2860;54.284;10.158;2023-04-21T08:46:32;7.32;;;6.20;;
5674;SDS011;2860;54.284;10.158;2023-04-21T08:49:00;5.90;;;5.32;;
5674;SDS011;2860;54.284;10.158;2023-04-21T08:51:26;11.45;;;6.15;;
5674;SDS011;2860;54.284;10.158;2023-04-21T08:53:55;6.38;;;5.97;;
5674;SDS011;2860;54.284;10.158;2023-04-21T08:56:24;7.45;;;5.93;;
5674;SDS011;2860;54.284;10.158;2023-04-21T08:58:50;8.38;;;6.60;;
5674;SDS011;2860;54.284;10.158;2023-04-21T09:01:16;7.07;;;6.47;;
5674;SDS011;2860;54.284;10.158;2023-04-21T09:03:41;6.78;;;6.00;;
5674;SDS011;2860;54.284;10.158;2023-04-21T09:06:08;6.55;;;5.95;;
5674;SDS011;2860;54.284;10.158;2023-04-21T09:08:36;10.60;;;6.40;;
5674;SDS011;2860;54.284;10.158;2023-04-21T09:11:03;6.70;;;5.78;;
5674;SDS011;2860;54.284;10.158;2023-04-21T09:13:30;6.82;;;6.22;;
5674;SDS011;2860;54.284;10.158;2023-04-21T09:15:57;8.32;;;5.68;;
5674;SDS011;2860;54.284;10.158;2023-04-21T09:18:24;6.55;;;6.00;;
5674;SDS011;2860;54.284;10.158;2023-04-21T09:20:52;11.52;;;6.43;;
5674;SDS011;2860;54.284;10.158;2023-04-21T09:23:51;8.10;;;7.32;;
5674;SDS011;2860;54.284;10.158;2023-04-21T09:26:19;12.57;;;6.93;;
5674;SDS011;2860;54.284;10.158;2023-04-21T09:28:50;9.85;;;6.90;;
5674;SDS011;2860;54.284;10.158;2023-04-21T09:31:17;8.40;;;6.40;;
5674;SDS011;2860;54.284;10.158;2023-04-21T09:33:49;10.18;;;6.90;;
5674;SDS011;2860;54.284;10.158;2023-04-21T09:36:17;9.00;;;6.28;;
5674;SDS011;2860;54.284;10.158;2023-04-21T09:41:23;7.75;;;6.75;;
5674;SDS011;2860;54.284;10.158;2023-04-21T09:43:49;8.27;;;7.05;;
5674;SDS011;2860;54.284;10.158;2023-04-21T09:46:15;9.30;;;6.82;;
5674;SDS011;2860;54.284;10.158;2023-04-21T09:48:42;7.45;;;6.40;;
5674;SDS011;2860;54.284;10.158;2023-04-21T09:51:14;9.82;;;7.22;;
5674;SDS011;2860;54.284;10.158;2023-04-21T09:53:41;7.20;;;6.53;;
5674;SDS011;2860;54.284;10.158;2023-04-21T09:56:10;7.65;;;6.72;;
5674;SDS011;2860;54.284;10.158;2023-04-21T09:58:43;6.68;;;6.18;;
5674;SDS011;2860;54.284;10.158;2023-04-21T10:01:11;7.50;;;6.80;;
5674;SDS011;2860;54.284;10.158;2023-04-21T10:03:38;10.00;;;7.00;;
5674;SDS011;2860;54.284;10.158;2023-04-21T10:06:04;8.88;;;7.60;;
5674;SDS011;2860;54.284;10.158;2023-04-21T10:08:31;7.95;;;7.15;;
5674;SDS011;2860;54.284;10.158;2023-04-21T10:10:57;7.35;;;6.55;;
5674;SDS011;2860;54.284;10.158;2023-04-21T10:13:24;6.85;;;6.45;;
5674;SDS011;2860;54.284;10.158;2023-04-21T10:15:49;7.35;;;6.65;;
5674;SDS011;2860;54.284;10.158;2023-04-21T10:18:35;7.20;;;6.70;;
5674;SDS011;2860;54.284;10.158;2023-04-21T10:21:08;7.70;;;7.00;;
5674;SDS011;2860;54.284;10.158;2023-04-21T10:23:42;7.75;;;6.45;;
5674;SDS011;2860;54.284;10.158;2023-04-21T10:26:12;8.07;;;7.38;;
5674;SDS011;2860;54.284;10.158;2023-04-21T10:28:51;7.80;;;6.70;;
5674;SDS011;2860;54.284;10.158;2023-04-21T10:36:34;7.53;;;6.97;;
5674;SDS011;2860;54.284;10.158;2023-04-21T10:39:09;7.20;;;6.55;;
5674;SDS011;2860;54.284;10.158;2023-04-21T10:41:40;8.25;;;7.13;;
5674;SDS011;2860;54.284;10.158;2023-04-21T10:44:11;6.80;;;6.28;;
5674;SDS011;2860;54.284;10.158;2023-04-21T10:46:44;6.97;;;6.32;;
5674;SDS011;2860;54.284;10.158;2023-04-21T10:49:20;7.60;;;6.82;;
5674;SDS011;2860;54.284;10.158;2023-04-21T10:57:10;6.90;;;6.40;;
5674;SDS011;2860;54.284;10.158;2023-04-21T10:59:43;7.22;;;6.50;;
5674;SDS011;2860;54.284;10.158;2023-04-21T11:02:10;7.35;;;6.75;;
5674;SDS011;2860;54.284;10.158;2023-04-21T11:04:36;7.68;;;6.35;;
5674;SDS011;2860;54.284;10.158;2023-04-21T11:09:41;12.73;;;6.75;;
5674;SDS011;2860;54.284;10.158;2023-04-21T11:12:10;7.70;;;6.90;;
5674;SDS011;2860;54.284;10.158;2023-04-21T11:14:40;7.03;;;6.07;;
5674;SDS011;2860;54.284;10.158;2023-04-21T11:17:17;8.25;;;7.47;;
5674;SDS011;2860;54.284;10.158;2023-04-21T11:19:54;12.45;;;7.30;;
5674;SDS011;2860;54.284;10.158;2023-04-21T11:22:23;7.35;;;6.65;;
5674;SDS011;2860;54.284;10.158;2023-04-21T11:24:54;6.50;;;5.90;;
5674;SDS011;2860;54.284;10.158;2023-04-21T11:27:21;8.82;;;6.60;;
5674;SDS011;2860;54.284;10.158;2023-04-21T11:29:48;7.13;;;6.38;;
5674;SDS011;2860;54.284;10.158;2023-04-21T11:32:14;7.40;;;6.70;;
5674;SDS011;2860;54.284;10.158;2023-04-21T11:34:40;6.90;;;6.35;;
5674;SDS011;2860;54.284;10.158;2023-04-21T11:37:06;7.22;;;6.45;;
5674;SDS011;2860;54.284;10.158;2023-04-21T11:39:33;8.07;;;7.47;;
5674;SDS011;2860;54.284;10.158;2023-04-21T11:41:58;8.65;;;7.68;;
5674;SDS011;2860;54.284;10.158;2023-04-21T11:46:59;7.55;;;6.85;;
5674;SDS011;2860;54.284;10.158;2023-04-21T11:49:42;8.35;;;7.65;;
5674;SDS011;2860;54.284;10.158;2023-04-21T11:52:09;7.95;;;6.78;;
5674;SDS011;2860;54.284;10.158;2023-04-21T11:54:34;7.53;;;6.72;;
5674;SDS011;2860;54.284;10.158;2023-04-21T11:57:00;8.40;;;7.45;;
5674;SDS011;2860;54.284;10.158;2023-04-21T11:59:26;7.40;;;6.78;;
5674;SDS011;2860;54.284;10.158;2023-04-21T12:01:53;13.85;;;6.32;;
5674;SDS011;2860;54.284;10.158;2023-04-21T12:04:20;9.88;;;7.70;;
5674;SDS011;2860;54.284;10.158;2023-04-21T12:06:55;7.72;;;6.57;;
5674;SDS011;2860;54.284;10.158;2023-04-21T12:09:22;10.88;;;6.72;;
5674;SDS011;2860;54.284;10.158;2023-04-21T12:11:51;12.13;;;8.10;;
5674;SDS011;2860;54.284;10.158;2023-04-21T12:14:19;7.72;;;7.20;;
5674;SDS011;2860;54.284;10.158;2023-04-21T12:16:52;7.88;;;6.85;;
5674;SDS011;2860;54.284;10.158;2023-04-21T12:19:23;10.15;;;7.00;;
5674;SDS011;2860;54.284;10.158;2023-04-21T12:21:58;7.80;;;7.30;;
5674;SDS011;2860;54.284;10.158;2023-04-21T12:24:25;7.45;;;6.75;;
5674;SDS011;2860;54.284;10.158;2023-04-21T12:26:50;7.40;;;6.68;;
5674;SDS011;2860;54.284;10.158;2023-04-21T12:29:16;7.85;;;6.93;;
5674;SDS011;2860;54.284;10.158;2023-04-21T12:31:41;11.45;;;7.88;;
5674;SDS011;2860;54.284;10.158;2023-04-21T12:34:07;7.07;;;6.45;;
5674;SDS011;2860;54.284;10.158;2023-04-21T12:36:33;8.27;;;7.50;;
5674;SDS011;2860;54.284;10.158;2023-04-21T12:38:58;8.85;;;8.07;;
5674;SDS011;2860;54.284;10.158;2023-04-21T12:41:24;7.75;;;7.15;;
5674;SDS011;2860;54.284;10.158;2023-04-21T12:43:50;8.73;;;7.63;;
5674;SDS011;2860;54.284;10.158;2023-04-21T12:46:15;8.25;;;7.55;;
5674;SDS011;2860;54.284;10.158;2023-04-21T12:48:41;9.13;;;7.82;;
5674;SDS011;2860;54.284;10.158;2023-04-21T12:51:07;8.05;;;7.35;;
5674;SDS011;2860;54.284;10.158;2023-04-21T12:53:32;7.57;;;6.90;;
5674;SDS011;2860;54.284;10.158;2023-04-21T12:55:58;11.65;;;6.90;;
5674;SDS011;2860;54.284;10.158;2023-04-21T12:58:23;9.20;;;7.15;;
5674;SDS011;2860;54.284;10.158;2023-04-21T13:00:49;8.05;;;7.35;;
5674;SDS011;2860;54.284;10.158;2023-04-21T13:03:14;8.80;;;7.57;;
5674;SDS011;2860;54.284;10.158;2023-04-21T13:05:40;7.85;;;7.10;;
5674;SDS011;2860;54.284;10.158;2023-04-21T13:08:05;7.47;;;6.88;;
5674;SDS011;2860;54.284;10.158;2023-04-21T13:10:31;8.60;;;7.63;;
5674;SDS011;2860;54.284;10.158;2023-04-21T13:12:56;8.20;;;7.40;;
5674;SDS011;2860;54.284;10.158;2023-04-21T13:15:22;9.15;;;7.95;;
5674;SDS011;2860;54.284;10.158;2023-04-21T13:17:47;7.38;;;6.78;;
5674;SDS011;2860;54.284;10.158;2023-04-21T13:20:16;8.77;;;7.20;;
5674;SDS011;2860;54.284;10.158;2023-04-21T13:22:43;8.30;;;7.47;;
5674;SDS011;2860;54.284;10.158;2023-04-21T13:25:08;8.80;;;7.93;;
5674;SDS011;2860;54.284;10.158;2023-04-21T13:27:34;8.38;;;7.30;;
5674;SDS011;2860;54.284;10.158;2023-04-21T13:30:02;11.38;;;7.30;;
5674;SDS011;2860;54.284;10.158;2023-04-21T13:32:30;8.07;;;7.57;;
5674;SDS011;2860;54.284;10.158;2023-04-21T13:34:55;9.55;;;7.90;;
5674;SDS011;2860;54.284;10.158;2023-04-21T13:37:22;8.02;;;7.10;;
5674;SDS011;2860;54.284;10.158;2023-04-21T13:39:47;7.55;;;6.80;;
5674;SDS011;2860;54.284;10.158;2023-04-21T13:42:13;13.18;;;7.60;;
5674;SDS011;2860;54.284;10.158;2023-04-21T13:44:38;9.70;;;7.85;;
5674;SDS011;2860;54.284;10.158;2023-04-21T13:47:04;8.30;;;7.70;;
5674;SDS011;2860;54.284;10.158;2023-04-21T13:49:29;8.68;;;7.97;;
5674;SDS011;2860;54.284;10.158;2023-04-21T13:51:55;9.55;;;7.90;;
5674;SDS011;2860;54.284;10.158;2023-04-21T13:54:21;14.68;;;9.45;;
5674;SDS011;2860;54.284;10.158;2023-04-21T13:56:46;10.68;;;8.00;;
5674;SDS011;2860;54.284;10.158;2023-04-21T13:59:12;9.40;;;8.38;;
5674;SDS011;2860;54.284;10.158;2023-04-21T14:01:38;9.70;;;8.75;;
5674;SDS011;2860;54.284;10.158;2023-04-21T14:04:05;11.27;;;7.88;;
5674;SDS011;2860;54.284;10.158;2023-04-21T14:06:31;10.27;;;8.60;;
5674;SDS011;2860;54.284;10.158;2023-04-21T14:08:57;11.93;;;7.68;;
5674;SDS011;2860;54.284;10.158;2023-04-21T14:11:22;9.52;;;8.35;;
5674;SDS011;2860;54.284;10.158;2023-04-21T14:13:48;9.47;;;8.57;;
5674;SDS011;2860;54.284;10.158;2023-04-21T14:16:14;10.32;;;9.13;;
5674;SDS011;2860;54.284;10.158;2023-04-21T14:18:39;14.73;;;7.47;;
5674;SDS011;2860;54.284;10.158;2023-04-21T14:21:09;8.27;;;7.30;;
5674;SDS011;2860;54.284;10.158;2023-04-21T14:23:41;8.95;;;7.90;;
5674;SDS011;2860;54.284;10.158;2023-04-21T14:26:07;9.52;;;7.40;;
5674;SDS011;2860;54.284;10.158;2023-04-21T14:28:33;9.85;;;9.10;;
5674;SDS011;2860;54.284;10.158;2023-04-21T14:30:58;10.40;;;8.57;;
5674;SDS011;2860;54.284;10.158;2023-04-21T14:33:24;8.88;;;7.97;;
5674;SDS011;2860;54.284;10.158;2023-04-21T14:35:50;8.63;;;8.00;;
5674;SDS011;2860;54.284;10.158;2023-04-21T14:38:15;14.82;;;8.93;;
5674;SDS011;2860;54.284;10.158;2023-04-21T14:40:41;8.93;;;8.02;;
5674;SDS011;2860;54.284;10.158;2023-04-21T14:43:07;9.88;;;8.93;;
5674;SDS011;2860;54.284;10.158;2023-04-21T14:45:35;8.25;;;7.57;;
5674;SDS011;2860;54.284;10.158;2023-04-21T14:48:00;8.93;;;8.27;;
5674;SDS011;2860;54.284;10.158;2023-04-21T14:50:26;9.38;;;8.48;;
5674;SDS011;2860;54.284;10.158;2023-04-21T14:52:52;11.40;;;8.85;;
5674;SDS011;2860;54.284;10.158;2023-04-21T14:55:17;8.80;;;8.05;;
5674;SDS011;2860;54.284;10.158;2023-04-21T14:57:43;15.30;;;8.07;;
5674;SDS011;2860;54.284;10.158;2023-04-21T15:00:09;12.02;;;8.23;;
5674;SDS011;2860;54.284;10.158;2023-04-21T15:02:35;15.88;;;9.07;;
5674;SDS011;2860;54.284;10.158;2023-04-21T15:05:00;8.88;;;7.97;;
5674;SDS011;2860;54.284;10.158;2023-04-21T15:07:27;10.32;;;9.18;;
5674;SDS011;2860;54.284;10.158;2023-04-21T15:09:52;8.60;;;7.85;;
5674;SDS011;2860;54.284;10.158;2023-04-21T15:12:19;9.65;;;8.65;;